CDT,Max TemperatureF,Mean TemperatureF,Min TemperatureF,Max Dew PointF,MeanDew PointF,Min DewpointF,Max Humidity, Mean Humidity, Min Humidity, Max Sea Level PressureIn, Mean Sea Level PressureIn, Min Sea Level PressureIn, Max VisibilityMiles, Mean VisibilityMiles, Min VisibilityMiles, Max Wind SpeedMPH, Mean Wind SpeedMPH, Max Gust SpeedMPH,PrecipitationIn, CloudCover, Events, WindDirDegrees
2013-8-1,83,70,58,66,61,57,94,73,42,30.09,30.03,29.93,10,9,1,8,4,,0.00,1,,253
2013-8-2,83,73,63,66,63,58,91,73,51,30.01,29.93,29.90,10,10,10,12,5,21,0.00,1,,300
2013-8-3,78,69,60,61,56,51,91,67,39,30.19,30.10,30.02,10,10,10,9,4,,0.00,1,,9
2013-8-4,79,66,52,58,54,50,92,65,40,30.22,30.16,30.09,10,10,10,9,5,,0.00,0,,106
2013-8-5,81,70,60,70,64,57,91,80,66,30.08,29.94,29.84,10,10,7,12,4,16,0.00,4,,176
2013-8-6,88,76,64,72,68,63,95,79,51,29.92,29.85,29.80,10,8,0,25,3,38,0.12,4,Fog-Rain,205
2013-8-7,81,71,62,70,65,60,94,79,58,30.01,29.90,29.80,10,10,1,14,4,17,0.55,1,Rain,344
2013-8-8,78,67,56,65,60,54,93,78,52,30.04,30.01,29.98,10,10,7,6,3,,0.00,0,,32
2013-8-9,80,71,61,68,63,58,93,81,57,30.13,30.05,30.01,10,10,2,8,2,,0.07,1,Rain,331
2013-8-10,78,66,55,64,56,52,92,70,44,30.22,30.17,30.12,10,10,10,6,3,,0.00,0,,34
2013-8-11,83,71,59,68,61,56,91,71,45,30.15,30.10,30.02,10,10,10,9,4,,0.00,0,,201
2013-8-12,81,70,60,67,61,56,93,73,46,30.05,30.01,29.98,10,10,7,10,4,16,0.02,2,Rain,352
2013-8-13,75,64,53,58,54,50,91,73,46,30.19,30.11,30.04,10,10,10,10,5,,0.00,1,,24
2013-8-14,73,60,48,55,49,43,92,67,35,30.25,30.20,30.15,10,10,10,6,3,,0.00,1,,95
2013-8-15,72,62,52,56,53,49,90,71,48,30.18,30.15,30.12,10,10,10,7,2,,0.00,4,,167
2013-8-16,77,62,48,59,53,46,94,71,38,30.21,30.18,30.15,10,10,7,8,4,,0.00,1,,72
2013-8-17,80,65,50,57,54,49,92,68,38,30.23,30.19,30.15,10,10,10,9,4,,0.00,1,,87
2013-8-18,79,65,51,60,55,49,92,69,40,30.21,30.16,30.09,10,10,5,8,3,,0.00,0,,133
2013-8-19,82,68,54,64,59,52,93,73,42,30.12,30.08,30.02,10,9,4,9,4,,0.00,0,,185
2013-8-20,86,74,61,67,63,58,89,71,47,30.07,30.03,29.98,10,10,7,13,6,17,0.00,3,,178
2013-8-21,88,76,64,69,65,61,90,70,48,30.06,30.02,29.98,10,10,7,12,6,17,0.00,1,,197
2013-8-22,79,73,67,69,66,64,91,79,63,30.12,30.07,30.02,10,9,7,9,5,,0.00,2,Rain,161
2013-8-23,85,74,63,69,66,61,94,78,56,30.15,30.11,30.06,10,8,2,9,5,,0.00,2,,112
2013-8-24,88,80,73,71,69,66,79,64,52,30.19,30.13,30.10,10,10,10,10,7,16,0.00,1,,162
2013-8-25,90,78,65,69,65,59,92,68,46,30.22,30.16,30.11,10,10,7,13,7,17,0.00,0,,182
2013-8-26,93,80,66,71,67,60,90,68,42,30.15,30.09,30.00,10,10,5,10,6,,0.00,0,,208
2013-8-27,94,82,71,69,66,62,86,63,36,30.01,29.96,29.90,10,10,10,15,8,22,0.00,0,,230
2013-8-28,93,81,69,75,67,63,87,65,40,30.02,29.98,29.95,10,10,7,10,6,,0.00,0,,261
2013-8-29,93,80,66,72,68,64,94,69,40,30.07,30.01,29.95,10,9,1,8,2,,0.00,2,,166
2013-8-30,97,82,68,77,69,62,92,67,30,29.96,29.87,29.79,10,10,7,7,4,,0.00,0,,212
2013-8-31,85,77,69,72,69,66,93,80,55,29.85,29.82,29.79,10,9,3,8,2,,0.00,1,,334